createdAt,value
2018-04-30T00:01:25.631Z,19.47
2018-04-30T00:04:03.904Z,19.03
2018-04-30T00:06:40.682Z,22.03
2018-04-30T00:09:17.766Z,19.40
2018-04-30T00:11:54.210Z,21.00
2018-04-30T00:14:34.425Z,17.73
2018-04-30T00:17:10.876Z,17.97
2018-04-30T00:19:47.691Z,21.83
2018-04-30T00:22:25.339Z,20.40
2018-04-30T00:25:01.847Z,21.23
2018-04-30T00:27:38.320Z,18.63
2018-04-30T00:30:15.636Z,19.40
2018-04-30T00:32:52.392Z,20.67
2018-04-30T00:35:29.062Z,22.03
2018-04-30T00:38:05.923Z,21.23
2018-04-30T00:40:44.150Z,20.93
2018-04-30T00:43:20.777Z,20.17
2018-04-30T00:45:59.484Z,20.00
2018-04-30T00:48:35.973Z,20.20
2018-04-30T00:51:13.018Z,22.97
2018-04-30T00:53:49.954Z,22.93
2018-04-30T00:56:26.433Z,19.00
2018-04-30T00:59:03.155Z,19.67
2018-04-30T01:01:41.647Z,28.70
2018-04-30T01:04:18.113Z,19.50
2018-04-30T01:06:54.957Z,18.93
2018-04-30T01:09:31.822Z,19.37
2018-04-30T01:12:08.288Z,19.07
2018-04-30T01:14:44.868Z,25.67
2018-04-30T01:17:24.058Z,20.03
2018-04-30T01:20:00.693Z,19.97
2018-04-30T01:22:37.431Z,22.13
2018-04-30T01:25:14.212Z,21.63
2018-04-30T01:27:50.908Z,18.50
2018-04-30T01:30:27.583Z,19.43
2018-04-30T01:33:06.123Z,23.77
2018-04-30T01:35:43.482Z,23.03
2018-04-30T01:38:20.157Z,24.63
2018-04-30T01:40:58.826Z,19.53
2018-04-30T01:43:36.177Z,23.40
2018-04-30T01:46:12.675Z,22.80
2018-04-30T01:48:50.309Z,20.33
2018-04-30T01:51:27.577Z,22.47
2018-04-30T01:54:05.130Z,23.27
2018-04-30T01:56:44.654Z,25.40
2018-04-30T01:59:21.128Z,30.63
2018-04-30T02:01:57.623Z,24.73
2018-04-30T02:04:36.652Z,23.97
2018-04-30T02:07:12.966Z,25.97
2018-04-30T02:09:49.460Z,23.70
2018-04-30T02:12:28.849Z,25.90
2018-04-30T02:15:05.410Z,28.70
2018-04-30T02:17:41.923Z,27.27
2018-04-30T02:20:18.759Z,28.20
2018-04-30T02:22:55.993Z,31.60
2018-04-30T02:25:33.123Z,28.63
2018-04-30T02:28:11.126Z,25.00
2018-04-30T02:30:47.590Z,26.33
2018-04-30T02:33:24.296Z,20.87
2018-04-30T02:36:01.902Z,24.67
2018-04-30T02:38:38.476Z,29.93
2018-04-30T02:41:14.853Z,32.97
2018-04-30T02:43:54.159Z,24.93
2018-04-30T02:46:30.583Z,29.67
2018-04-30T02:49:09.177Z,37.17
2018-04-30T02:51:47.482Z,38.33
2018-04-30T02:54:24.153Z,38.27
2018-04-30T02:57:00.730Z,36.70
2018-04-30T02:59:37.319Z,39.30
2018-04-30T03:02:13.732Z,42.80
2018-04-30T03:04:50.229Z,43.80
2018-04-30T03:07:29.270Z,44.87
2018-04-30T03:10:05.642Z,46.33
2018-04-30T03:12:42.224Z,45.27
2018-04-30T03:15:19.385Z,40.87
2018-04-30T03:17:56.779Z,44.83
2018-04-30T03:20:34.104Z,35.93
2018-04-30T03:23:13.374Z,37.30
2018-04-30T03:25:50.130Z,40.17
2018-04-30T03:28:27.882Z,68.63
2018-04-30T03:31:04.492Z,62.30
2018-04-30T03:33:41.101Z,41.63
2018-04-30T03:36:20.322Z,39.33
2018-04-30T03:38:57.682Z,40.87
2018-04-30T03:41:34.072Z,34.80
2018-04-30T03:44:11.125Z,30.50
2018-04-30T03:46:47.632Z,26.10
2018-04-30T03:49:24.150Z,28.03
2018-04-30T03:52:03.055Z,33.10
2018-04-30T03:54:39.457Z,35.67
2018-04-30T03:57:17.926Z,42.23
2018-04-30T03:59:56.423Z,44.10
2018-04-30T04:04:48.948Z,45.10
2018-04-30T04:07:26.260Z,32.77
2018-04-30T04:10:04.600Z,33.73
2018-04-30T04:12:41.981Z,36.10
2018-04-30T04:15:20.764Z,35.07
2018-04-30T04:17:59.672Z,37.03
2018-04-30T04:20:38.498Z,33.63
2018-04-30T04:23:15.262Z,30.20
2018-04-30T04:25:52.225Z,27.03
2018-04-30T04:28:28.894Z,30.63
2018-04-30T04:31:05.510Z,29.80
2018-04-30T04:33:46.869Z,29.47
2018-04-30T04:36:24.553Z,28.90
2018-04-30T04:39:03.319Z,26.80
2018-04-30T04:41:48.765Z,27.37
2018-04-30T04:44:25.279Z,28.17
2018-04-30T04:47:04.172Z,25.63
2018-04-30T04:49:45.371Z,23.47
2018-04-30T04:52:24.625Z,33.00
2018-04-30T04:55:03.124Z,30.83
2018-04-30T04:57:42.967Z,26.87
2018-04-30T05:00:22.943Z,26.23
2018-04-30T05:02:59.736Z,23.70
2018-04-30T05:05:36.900Z,25.43
2018-04-30T05:08:13.799Z,23.03
2018-04-30T05:10:50.673Z,23.43
2018-04-30T05:13:29.117Z,22.83
2018-04-30T05:16:11.866Z,23.40
2018-04-30T05:18:49.656Z,24.60
2018-04-30T05:21:28.601Z,25.33
2018-04-30T05:24:10.863Z,23.90
2018-04-30T05:26:52.545Z,21.87
2018-04-30T05:29:30.991Z,23.10
2018-04-30T05:32:13.689Z,20.17
2018-04-30T05:34:51.049Z,25.20
2018-04-30T05:37:30.137Z,24.37
2018-04-30T05:40:12.167Z,17.70
2018-04-30T05:42:52.851Z,18.53
2018-04-30T05:45:32.704Z,18.57
2018-04-30T05:48:12.621Z,18.53
2018-04-30T05:50:51.650Z,22.97
2018-04-30T05:53:30.656Z,22.30
2018-04-30T05:56:10.019Z,16.67
2018-04-30T05:58:51.100Z,16.13
2018-04-30T06:01:30.372Z,15.60
2018-04-30T06:04:07.148Z,9.73
2018-04-30T06:06:45.480Z,9.83
2018-04-30T06:09:22.387Z,12.27
2018-04-30T06:11:59.292Z,9.53
2018-04-30T06:14:35.813Z,7.90
2018-04-30T06:17:17.193Z,7.03
2018-04-30T06:19:56.086Z,8.63
2018-04-30T06:22:35.219Z,7.37
2018-04-30T06:25:16.302Z,8.00
2018-04-30T06:27:56.496Z,9.37
2018-04-30T06:30:35.642Z,5.37
2018-04-30T06:33:16.793Z,2.73
2018-04-30T06:35:56.392Z,6.73
2018-04-30T06:38:35.539Z,3.00
2018-04-30T06:41:15.879Z,3.53
2018-04-30T06:43:57.335Z,5.20
2018-04-30T06:46:37.262Z,4.83
2018-04-30T06:49:20.707Z,2.90
2018-04-30T06:52:01.038Z,2.20
2018-04-30T06:54:40.922Z,2.37
2018-04-30T06:57:20.542Z,2.30
2018-04-30T07:00:00.406Z,6.47
2018-04-30T07:02:45.064Z,1.90
2018-04-30T07:05:21.674Z,1.73
2018-04-30T07:08:02.260Z,3.13
2018-04-30T07:10:44.884Z,3.53
2018-04-30T07:13:22.721Z,1.93
2018-04-30T07:16:03.448Z,2.17
2018-04-30T07:18:43.212Z,1.53
2018-04-30T07:21:41.043Z,4.13
2018-04-30T07:24:22.960Z,5.93
2018-04-30T07:27:02.418Z,1.30
2018-04-30T07:29:41.402Z,2.20
2018-04-30T07:32:22.141Z,2.00
2018-04-30T07:35:01.881Z,4.30
2018-04-30T07:37:42.673Z,0.80
2018-04-30T07:40:26.017Z,1.77
2018-04-30T07:43:06.145Z,3.13
2018-04-30T07:45:49.739Z,2.40
2018-04-30T07:48:26.286Z,1.37
2018-04-30T07:51:07.090Z,4.57
2018-04-30T07:53:48.592Z,1.60
2018-04-30T07:56:27.341Z,2.13
2018-04-30T07:59:09.428Z,1.73
2018-04-30T08:01:48.062Z,1.30
2018-04-30T08:04:30.821Z,2.70
2018-04-30T08:07:08.514Z,2.97
2018-04-30T08:09:54.110Z,3.93
2018-04-30T08:12:30.615Z,2.63
2018-04-30T08:15:11.160Z,4.10
2018-04-30T08:17:50.007Z,1.23
2018-04-30T08:20:29.628Z,3.37
2018-04-30T08:23:09.625Z,0.83
2018-04-30T08:25:49.111Z,1.23
2018-04-30T08:28:35.044Z,2.33
2018-04-30T08:31:11.761Z,1.53
2018-04-30T08:38:32.189Z,1.37
2018-04-30T08:41:19.428Z,1.57
2018-04-30T08:43:56.175Z,0.93
2018-04-30T08:46:32.905Z,1.47
2018-04-30T08:49:15.086Z,1.43
2018-04-30T08:51:54.093Z,3.03
2018-04-30T08:54:37.886Z,2.90
2018-04-30T08:57:16.358Z,0.90
2018-04-30T08:59:55.403Z,1.37
2018-04-30T09:02:39.337Z,1.40
2018-04-30T09:05:20.602Z,1.30
2018-04-30T09:07:58.260Z,1.10
2018-04-30T09:10:39.881Z,0.70
2018-04-30T09:13:18.870Z,3.47
2018-04-30T09:16:01.989Z,2.70
2018-04-30T09:18:38.588Z,0.80
2018-04-30T09:21:21.203Z,1.43
2018-04-30T09:24:02.879Z,0.70
2018-04-30T09:26:43.683Z,1.83
2018-04-30T09:29:25.548Z,2.70
2018-04-30T09:32:05.071Z,1.47
2018-04-30T09:34:41.754Z,1.37
2018-04-30T09:37:24.130Z,0.80
2018-04-30T09:40:04.135Z,1.43
2018-04-30T09:42:48.023Z,0.70
2018-04-30T09:45:28.643Z,0.70
2018-04-30T09:48:05.244Z,1.20
2018-04-30T09:50:45.534Z,1.30
2018-04-30T09:53:23.280Z,2.67
2018-04-30T09:56:02.378Z,2.57
2018-04-30T09:58:44.518Z,1.73
2018-04-30T10:01:23.936Z,0.90
2018-04-30T10:04:05.898Z,2.20
2018-04-30T10:06:44.543Z,1.00
2018-04-30T10:09:24.814Z,0.93
2018-04-30T10:12:06.421Z,1.60
2018-04-30T10:14:44.262Z,0.70
2018-04-30T10:20:07.813Z,1.13
2018-04-30T10:22:50.069Z,2.67
2018-04-30T10:25:27.638Z,1.53
2018-04-30T10:28:07.306Z,0.83
2018-04-30T10:30:49.405Z,1.37
2018-04-30T10:33:27.164Z,0.80
2018-04-30T10:36:06.744Z,0.90
2018-04-30T10:38:46.909Z,1.20
2018-04-30T10:41:33.737Z,1.13
2018-04-30T10:44:10.475Z,1.17
2018-04-30T10:46:48.892Z,0.60
2018-04-30T10:49:31.367Z,2.00
2018-04-30T10:52:11.696Z,0.90
2018-04-30T10:54:50.541Z,0.90
2018-04-30T10:57:32.681Z,2.77
2018-04-30T11:00:10.604Z,1.00
2018-04-30T11:02:50.866Z,0.90
2018-04-30T11:05:30.550Z,2.13
2018-04-30T11:08:11.637Z,4.20
2018-04-30T11:10:51.045Z,1.20
2018-04-30T11:13:33.682Z,1.93
2018-04-30T11:16:12.675Z,4.93
2018-04-30T11:19:01.340Z,1.10
2018-04-30T11:21:38.425Z,0.80
2018-04-30T11:24:19.041Z,1.77
2018-04-30T11:27:02.308Z,1.83
2018-04-30T11:29:40.122Z,1.03
2018-04-30T11:32:17.178Z,2.23
2018-04-30T11:34:54.894Z,2.77
2018-04-30T11:37:35.399Z,1.10
2018-04-30T11:40:15.948Z,1.43
2018-04-30T11:42:59.616Z,1.43
2018-04-30T11:45:44.929Z,1.30
2018-04-30T11:48:25.937Z,3.50
2018-04-30T11:51:05.046Z,1.37
2018-04-30T11:53:44.094Z,1.97
2018-04-30T11:56:21.483Z,10.13
2018-04-30T11:59:01.332Z,1.20
2018-04-30T12:01:39.165Z,1.77
2018-04-30T12:04:18.838Z,1.33
2018-04-30T12:07:06.309Z,3.80
2018-04-30T12:09:45.708Z,3.20
2018-04-30T12:12:22.623Z,1.27
2018-04-30T12:15:01.795Z,1.03
2018-04-30T12:17:40.835Z,3.43
2018-04-30T12:20:23.540Z,1.10
2018-04-30T12:23:01.442Z,1.10
2018-04-30T12:25:41.563Z,0.70
2018-04-30T12:28:22.489Z,1.00
2018-04-30T12:31:04.638Z,2.40
2018-04-30T12:33:45.637Z,1.40
2018-04-30T12:36:30.801Z,1.17
2018-04-30T12:39:11.463Z,1.73
2018-04-30T12:42:02.087Z,3.90
2018-04-30T12:45:02.863Z,1.10
2018-04-30T12:47:43.409Z,1.80
2018-04-30T12:50:23.901Z,1.77
2018-04-30T12:53:05.080Z,1.10
2018-04-30T12:55:41.999Z,1.20
2018-04-30T12:58:24.365Z,1.00
2018-04-30T13:01:07.647Z,1.30
2018-04-30T13:03:48.817Z,1.50
2018-04-30T13:06:32.781Z,3.60
2018-04-30T13:09:12.153Z,1.30
2018-04-30T13:11:53.051Z,1.47
2018-04-30T13:14:34.982Z,1.53
2018-04-30T13:17:13.408Z,1.87
2018-04-30T13:20:00.034Z,1.50
2018-04-30T13:22:46.194Z,1.40
2018-04-30T13:25:27.314Z,1.43
2018-04-30T13:28:09.121Z,1.50
2018-04-30T13:30:49.638Z,1.30
2018-04-30T13:33:30.625Z,1.70
2018-04-30T13:36:11.543Z,2.00
2018-04-30T13:38:53.341Z,1.70
2018-04-30T13:44:29.926Z,1.87
2018-04-30T13:47:09.849Z,1.00
2018-04-30T13:49:52.596Z,1.77
2018-04-30T13:52:32.399Z,1.03
2018-04-30T13:55:13.316Z,1.40
2018-04-30T13:57:58.640Z,1.40
2018-04-30T14:00:35.298Z,1.30
2018-04-30T14:03:12.846Z,2.53
2018-04-30T14:05:55.277Z,1.67
2018-04-30T14:08:32.171Z,1.00
2018-04-30T14:13:59.240Z,1.27
2018-04-30T14:16:36.129Z,3.33
2018-04-30T14:19:25.010Z,4.20
2018-04-30T14:22:04.956Z,5.03
2018-04-30T14:24:48.602Z,1.20
2018-04-30T14:27:36.181Z,1.50
2018-04-30T14:30:15.541Z,1.70
2018-04-30T14:32:53.177Z,1.10
2018-04-30T14:35:36.716Z,1.23
2018-04-30T14:38:14.068Z,2.03
2018-04-30T14:41:00.280Z,1.30
2018-04-30T14:43:45.812Z,1.10
2018-04-30T14:46:23.521Z,1.30
2018-04-30T14:49:03.275Z,3.10
2018-04-30T14:51:39.984Z,1.50
2018-04-30T14:54:19.882Z,1.30
2018-04-30T14:57:03.061Z,1.40
2018-04-30T14:59:39.716Z,2.07
2018-04-30T15:02:21.346Z,1.20
2018-04-30T15:04:57.986Z,2.93
2018-04-30T15:07:46.795Z,1.37
2018-04-30T15:10:23.429Z,2.00
2018-04-30T15:13:01.304Z,1.17
2018-04-30T15:15:42.293Z,1.50
2018-04-30T15:18:21.232Z,1.50
2018-04-30T15:21:04.936Z,1.80
2018-04-30T15:23:42.914Z,1.30
2018-04-30T15:26:22.037Z,1.43
2018-04-30T15:29:06.231Z,1.40
2018-04-30T15:31:42.918Z,1.27
2018-04-30T15:34:23.529Z,1.30
2018-04-30T15:37:10.139Z,1.20
2018-04-30T15:39:47.231Z,1.20
2018-04-30T15:42:28.692Z,1.00
2018-04-30T15:45:07.699Z,1.30
2018-04-30T15:47:45.786Z,1.50
2018-04-30T15:50:26.116Z,1.40
2018-04-30T15:53:05.872Z,2.30
2018-04-30T15:55:46.402Z,1.40
2018-04-30T15:58:31.949Z,2.73
2018-04-30T16:01:14.506Z,2.83
2018-04-30T16:03:53.099Z,1.10
2018-04-30T16:06:29.587Z,1.80
2018-04-30T16:09:07.584Z,1.80
2018-04-30T16:11:50.002Z,1.10
2018-04-30T16:14:27.076Z,1.17
2018-04-30T16:17:09.840Z,1.30
2018-04-30T16:19:46.380Z,1.70
2018-04-30T16:22:25.557Z,2.20
2018-04-30T16:25:06.984Z,1.23
2018-04-30T16:27:48.819Z,1.50
2018-04-30T16:30:28.854Z,1.43
2018-04-30T16:33:11.375Z,1.20
2018-04-30T16:35:49.500Z,3.57
2018-04-30T16:38:31.288Z,1.53
2018-04-30T16:41:11.045Z,1.30
2018-04-30T16:43:51.606Z,2.10
2018-04-30T16:46:31.631Z,2.50
2018-04-30T16:49:10.856Z,1.70
2018-04-30T16:51:53.546Z,0.97
2018-04-30T16:54:33.225Z,1.60
2018-04-30T16:57:11.099Z,0.93
2018-04-30T16:59:53.148Z,1.27
2018-04-30T17:02:32.902Z,1.00
2018-04-30T17:05:11.819Z,1.67
2018-04-30T17:07:54.863Z,1.12
2018-04-30T17:10:35.899Z,1.25
2018-04-30T17:13:15.664Z,1.23
2018-04-30T17:15:54.650Z,1.85
2018-04-30T17:18:35.429Z,1.10
2018-04-30T17:21:15.574Z,1.00
2018-04-30T17:23:56.447Z,1.17
2018-04-30T17:26:38.486Z,1.33
2018-04-30T17:29:19.588Z,1.60
2018-04-30T17:31:57.824Z,1.10
2018-04-30T17:34:39.534Z,2.30
2018-04-30T17:37:17.476Z,1.27
2018-04-30T17:39:57.609Z,1.20
2018-04-30T17:42:40.917Z,1.23
2018-04-30T17:45:20.406Z,1.93
2018-04-30T17:48:00.518Z,0.93
2018-04-30T17:50:38.134Z,1.33
2018-04-30T17:53:17.197Z,1.63
2018-04-30T17:55:58.184Z,1.73
2018-04-30T17:58:37.577Z,1.13
2018-04-30T18:01:17.158Z,1.00
2018-04-30T18:03:58.902Z,1.63
2018-04-30T18:06:41.808Z,1.50
2018-04-30T18:09:20.660Z,4.40
2018-04-30T18:12:03.436Z,5.73
2018-04-30T18:14:43.573Z,5.07
2018-04-30T18:17:21.694Z,4.10
2018-04-30T18:20:02.404Z,4.07
2018-04-30T18:22:41.682Z,3.80
2018-04-30T18:25:21.388Z,3.53
2018-04-30T18:28:03.954Z,4.47
2018-04-30T18:30:43.571Z,4.23
2018-04-30T18:33:23.740Z,5.07
2018-04-30T18:36:05.350Z,5.90
2018-04-30T18:38:44.234Z,17.23
2018-04-30T18:41:27.110Z,12.30
2018-04-30T18:44:06.593Z,11.60
2018-04-30T18:46:46.749Z,10.87
2018-04-30T18:49:28.081Z,13.37
2018-04-30T18:52:06.301Z,5.93
2018-04-30T18:54:50.912Z,8.80
2018-04-30T18:57:27.509Z,11.27
2018-04-30T19:00:06.745Z,9.53
2018-04-30T19:02:48.922Z,10.73
2018-04-30T19:05:27.209Z,13.83
2018-04-30T19:08:07.061Z,8.00
2018-04-30T19:10:48.751Z,6.80
2018-04-30T19:13:29.214Z,4.60
2018-04-30T19:16:10.185Z,5.13
2018-04-30T19:18:50.821Z,4.63
2018-04-30T19:21:28.750Z,6.20
2018-04-30T19:24:11.031Z,4.30
2018-04-30T19:26:50.114Z,5.73
2018-04-30T19:29:29.436Z,5.17
2018-04-30T19:32:11.993Z,5.10
2018-04-30T19:34:51.916Z,3.83
2018-04-30T19:37:31.243Z,2.80
2018-04-30T19:40:13.366Z,3.67
2018-04-30T19:42:53.387Z,5.47
2018-04-30T19:45:33.256Z,1.90
2018-04-30T19:48:13.692Z,2.77
2018-04-30T19:50:53.899Z,3.00
2018-04-30T19:53:33.360Z,1.87
2018-04-30T19:56:12.589Z,1.77
2018-04-30T19:58:53.151Z,3.47
2018-04-30T20:01:37.317Z,1.70
2018-04-30T20:04:16.051Z,1.70
2018-04-30T20:06:59.274Z,1.73
2018-04-30T20:09:36.948Z,1.33
2018-04-30T20:12:17.511Z,3.73
2018-04-30T20:14:59.849Z,1.40
2018-04-30T20:17:37.329Z,3.30
2018-04-30T20:20:16.345Z,2.67
2018-04-30T20:22:58.621Z,1.10
2018-04-30T20:25:37.251Z,1.27
2018-04-30T20:28:17.537Z,2.17
2018-04-30T20:31:00.494Z,1.63
2018-04-30T20:33:40.071Z,4.40
2018-04-30T20:36:19.874Z,1.73
2018-04-30T20:38:58.969Z,1.53
2018-04-30T20:41:38.349Z,1.23
2018-04-30T20:44:18.546Z,2.83
2018-04-30T20:46:57.656Z,1.67
2018-04-30T20:49:36.330Z,1.37
2018-04-30T20:52:13.403Z,4.27
2018-04-30T20:54:50.196Z,1.40
2018-04-30T20:57:27.437Z,1.37
2018-04-30T21:00:05.823Z,1.30
2018-04-30T21:02:42.307Z,1.33
2018-04-30T21:05:22.260Z,2.87
2018-04-30T21:07:59.228Z,1.53
2018-04-30T21:10:35.975Z,2.17
2018-04-30T21:13:12.753Z,1.10
2018-04-30T21:15:50.044Z,1.07
2018-04-30T21:18:27.349Z,1.47
2018-04-30T21:21:06.449Z,1.10
2018-04-30T21:23:44.642Z,1.37
2018-04-30T21:26:24.514Z,0.90
2018-04-30T21:29:05.802Z,0.90
2018-04-30T21:31:46.364Z,1.47
2018-04-30T21:34:26.001Z,2.60
2018-04-30T21:37:04.690Z,1.23
2018-04-30T21:39:46.032Z,1.23
2018-04-30T21:42:25.290Z,3.23
2018-04-30T21:45:04.275Z,1.30
2018-04-30T21:47:43.561Z,1.90
2018-04-30T21:50:20.294Z,5.23
2018-04-30T21:52:56.778Z,1.87
2018-04-30T21:55:33.742Z,3.50
2018-04-30T21:58:10.484Z,1.57
2018-04-30T22:00:50.643Z,1.43
2018-04-30T22:03:28.872Z,1.77
2018-04-30T22:06:07.905Z,3.13
2018-04-30T22:08:48.634Z,2.30
2018-04-30T22:11:30.838Z,1.37
2018-04-30T22:14:10.969Z,4.17
2018-04-30T22:16:51.208Z,1.83
2018-04-30T22:19:29.970Z,3.17
2018-04-30T22:22:08.588Z,2.53
2018-04-30T22:24:45.567Z,2.57
2018-04-30T22:27:29.379Z,2.77
2018-04-30T22:30:08.887Z,2.53
2018-04-30T22:32:49.001Z,2.43
2018-04-30T22:35:29.052Z,2.87
2018-04-30T22:38:05.752Z,3.07
2018-04-30T22:40:43.260Z,2.80
2018-04-30T22:43:21.552Z,5.23
2018-04-30T22:45:58.845Z,2.93
2018-04-30T22:48:37.466Z,2.90
2018-04-30T22:51:15.194Z,2.70
2018-04-30T22:53:57.402Z,3.73
2018-04-30T22:56:37.205Z,4.27
2018-04-30T22:59:15.861Z,3.70
2018-04-30T23:01:56.991Z,3.33
2018-04-30T23:04:35.307Z,4.40
2018-04-30T23:07:14.023Z,4.43
2018-04-30T23:09:51.026Z,3.77
2018-04-30T23:12:30.391Z,3.80
2018-04-30T23:15:07.893Z,2.43
2018-04-30T23:17:45.432Z,3.23
2018-04-30T23:20:21.855Z,5.50
2018-04-30T23:22:59.870Z,3.97
2018-04-30T23:25:39.758Z,5.20
2018-04-30T23:28:17.464Z,2.57
2018-04-30T23:30:54.104Z,3.83
2018-04-30T23:33:31.778Z,2.10
2018-04-30T23:36:08.396Z,2.50
2018-04-30T23:38:44.985Z,1.27
2018-04-30T23:41:24.162Z,1.63
2018-04-30T23:44:00.645Z,1.03
2018-04-30T23:46:37.904Z,1.67
2018-04-30T23:49:14.849Z,2.30
2018-04-30T23:51:52.583Z,1.10
2018-04-30T23:54:28.962Z,0.90
2018-04-30T23:57:07.451Z,1.30
2018-04-30T23:59:44.669Z,1.33
